AirNav   ATP
 
 1072 users online  

CL14 Huntington Memorial Hospital Heliport
Pasadena, California, USA

GOING TO PASADENA?


FAA INFORMATION EFFECTIVE 20 JULY 2017

Location

FAA Identifier: CL14
Lat/Long: 34-08-01.1280N / 118-09-13.2570W
34-08.018800N / 118-09.220950W
34.1336467 / -118.1536825
(estimated)
Elevation: 854 ft. / 260 m (estimated)
Variation: 14E (1985)
Time zone: UTC -7 (UTC -8 during Standard Time)
Zip code: 91105

Heliport Operations

Heliport use: Private use, MEDICAL USE.
Activation date: 01/1984
Control tower: no
ARTCC: LOS ANGELES CENTER
FSS: HAWTHORNE FLIGHT SERVICE STATION
Attendance: CONTINUOUS
Wind indicator: lighted
Segmented circle: no
Lights: ACTVT PERIMETER LGTS RY H2 - 123.05.
Beacon: white-green-yellow (heliport)
ACTVT ROTG BCN AND LGTD WINDCONE - 123.05.

Heliport Communications

UNICOM: 123.05
WX AWOS-3PT at EMT (7 nm SE): 118.75 ((626) 444-1107)
WX ASOS at BUR (11 nm W): PHONE 818-841-1384
WX AWOS-3PT at WHP (15 nm NW): 132.1 (818-899-9820)
WX AWOS-3PT at CPM (15 nm S): 127.150 (310-631-4958)
WX ASOS at HHR (16 nm SW): PHONE 310-973-8930
WX ASOS at SMO (16 nm SW): PHONE 310-392-6453
WX ASOS at LAX (17 nm SW): PHONE 310-568-1486
WX ASOS at VNY (17 nm W): PHONE 818-904-9213
WX ASOS at FUL (18 nm SE): PHONE 714-870-1372
WX ASOS at LGB (19 nm S): PHONE 562-424-0572

Nearby radio navigation aids

VOR radial/distance  VOR name  Freq  Var
SMOr049/16.8SANTA MONICA VOR/DME110.8015E
VNYr093/17.6VAN NUYS VOR/DME113.1015E
LAXr034/18.3LOS ANGELES VORTAC113.6015E
POMr265/18.5POMONA VORTAC110.4015E
SLIr332/21.6SEAL BEACH VORTAC115.7015E
PMDr173/30.2PALMDALE VORTAC114.5015E
PDZr278/33.6PARADISE VORTAC112.2015E
ELBr309/34.6EL TORO VOR/DME117.2014E
RALr273/(36.6)RIVERSIDE VOR112.4014E
FIMr095/38.5FILLMORE VORTAC112.5015E
LHSr133/39.1LAKE HUGHES VORTAC108.4015E

 
NDB name  Hdg/Dist  Freq  Var  ID
EL MONTE279/6.735915EEMT . -- -
PACOIMA105/14.937015EPAI .--. .- ..

Heliport Services

Runway Information

Helipad H1

Dimensions: 50 x 50 ft. / 15 x 15 m
Surface: concrete
ROOFTOP HELIPAD OTS AND MARKED WITH YELLOW X. RY H1 CAN BE USED DURG EXTREME EMERGENCY CONDITIONS.
Operational restrictions: INGRESS/EGRESS ROUTES N & S.
Latitude: 34-08.018800N
Longitude: 118-09.220950W
Elevation: 854.0 ft.
Traffic pattern: leftleft

Helipad H2

Dimensions: 40 x 40 ft. / 12 x 12 m
Surface: concrete
Runway edge lights: PERI
Operational restrictions: ROOFTOP HELIPAD.
Traffic pattern: leftleft

Heliport Ownership and Management from official FAA records

Ownership: Privately-owned
Owner: PASADENA MEMORIAL HOSPITAL
100 W. CALIFORNIA BLVD
PASADENA, CA 91109-7013
Phone 626-397-5000
Manager: THOMAS ROMEYN
100 W. CALIFORNIA BLVD.
PASADENA, CA 91105
Phone 626-397-5230

Instrument Procedures

There are no published instrument procedures at CL14.

Some nearby airports with instrument procedures:

KEMT - San Gabriel Valley Airport (7 nm SE)
KBUR - Bob Hope Airport (11 nm W)
KWHP - Whiteman Airport (15 nm NW)
KHHR - Jack Northrop Field/Hawthorne Municipal Airport (16 nm SW)
KSMO - Santa Monica Municipal Airport (16 nm SW)
KLAX - Los Angeles International Airport (17 nm SW)
KVNY - Van Nuys Airport (17 nm W)
KFUL - Fullerton Municipal Airport (18 nm SE)
KPOC - Brackett Field Airport (19 nm E)
KLGB - Long Beach Airport (Daugherty Field) (19 nm S)
 
Loc | Ops | Rwys | IFR | FBO | Links
Com | Nav | Svcs | Stats | Notes

San Bernardino International Airport Authority
 
Area around CL14 (Huntington Memorial Hospital Heliport)
 
Road maps at: MapQuest Bing Google
 
Aerial photo
No photo
 
Sectional chart

 
Airport distance calculator
Flying to Huntington Memorial Hospital Heliport? Find the distance to fly.

From to CL14

Sunrise and sunset
Times for 22-Jul-2017
 Local
(UTC-7)
 Zulu
(UTC)
Morning civil twilight05:3012:30
Sunrise05:5812:58
Sunset20:0003:00
Evening civil twilight20:2803:28

Current date and time
Zulu (UTC)  22-Jul-2017 15:11:50
Local (UTC-7)  22-Jul-2017 08:11:50
 
METAR
KCQT 
6nm SW 
221447Z AUTO 00000KT 5SM HZ CLR 22/18 A2991 RMK AO2 SLP127 T02220178 53006 $
KEMT 
8nm SE 
221445Z 00000KT 5SM BR CLR 22/19 A2995
KBUR 
11nm W 
221457Z 13003KT 9SM CLR 20/16 A2993 RMK AO2 T02000156 $
KWHP 
15nm NW 
221455Z 00000KT 10SM SKC 20/14 A2997
KHHR 
16nm SW 
221453Z 09004KT 7SM CLR 21/17 A2992 RMK AO2 RAB40E48 SLP131 P0000 60000 T02110172 53007
KSMO 
16nm SW 
221451Z 00000KT 6SM BR SCT012 21/18 A2992 RMK AO2 SLP131 T02060183 53007
KLAX 
17nm SW 
221453Z 11003KT 7SM SCT014 21/18 A2992 RMK AO2 SLP129 T02110178 53007
KVNY 
17nm W 
221451Z 00000KT 8SM CLR 21/17 A2993 RMK AO2 SLP125 T02060167 53007
KFUL 
18nm SE 
221453Z VRB03KT 7SM OVC015 22/18 A2992 RMK AO2 SLP129 T02170183 51007 $
KLGB 
19nm S 
221453Z 18004KT 8SM OVC014 21/18 A2992 RMK AO2 SLP132 T02110178 53008
TAF
KBUR 
11nm W 
221136Z 2212/2312 VRB05KT P6SM SKC FM221900 17008KT P6SM SKC FM230300 VRB05KT P6SM SKC
KSMO 
16nm SW 
221301Z 2213/2312 VRB03KT P6SM SCT013 FM221800 22005KT P6SM SKC FM222100 24009KT P6SM SKC FM230300 VRB03KT P6SM SKC FM231100 VRB03KT P6SM OVC012
KLAX 
17nm SW 
221136Z 2212/2318 VRB03KT P6SM OVC012 FM221700 24006KT 6SM HZ SCT015 FM221900 26011KT P6SM SKC FM230900 26007KT P6SM BKN009 FM231100 VRB03KT 6SM BR OVC012 FM231700 25006KT 6SM HZ SCT015
KVNY 
17nm W 
221136Z 2212/2312 VRB03KT P6SM SKC FM221900 14008KT P6SM SKC FM230300 VRB03KT P6SM SKC
KLGB 
19nm S 
221136Z 2212/2312 VRB05KT P6SM OVC011 FM221600 VRB03KT P6SM SKC FM221900 19007KT P6SM SKC FM230300 VRB03KT P6SM SKC FM231000 VRB03KT 6SM BR OVC011
NOTAMs
Click for the latest NOTAMs
NOTAMs are issued by the DoD/FAA and will open in a separate window not controlled by AirNav.

 

 
 

Would you like to see your business listed on this page?

 If your business provides an interesting product or service to pilots, flight crews, aircraft, or users of the Huntington Memorial Hospital Heliport, you should consider listing it here.  To start the listing process, click on the button below
 
Add a business
 

Other Pages about Huntington Memorial Hospital Heliport

Update a link
 
Copyright © AirNav, LLC. All rights reserved. Privacy Policy  Contact